ADDS METAR Data INFO
IDs: Format: Raw Decoded Include TAF

Data at: 0656 UTC 18 Feb 2018

KCPT 180635Z AUTO 06003KT 9SM CLR 09/08 A3018 RMK AO2
KCPT 180615Z AUTO 09004KT 10SM CLR 10/08 A3018 RMK AO2
KCPT 180555Z AUTO 00000KT 10SM CLR 10/09 A3019 RMK AO2
KCPT 180535Z AUTO 00000KT 10SM CLR 10/09 A3019 RMK AO2
KCPT 180515Z AUTO 00000KT 10SM CLR 10/09 A3020 RMK AO2
KCPT 180455Z AUTO 11003KT 10SM CLR 10/08 A3020 RMK AO2
KCPT 180435Z AUTO 00000KT 10SM 11/08 A3020 RMK AO2
KCPT 180415Z AUTO 13004KT 10SM CLR 11/08 A3020 RMK AO2
KCPT 180355Z AUTO 13005KT 10SM CLR 11/08 A3020 RMK AO2
KCPT 180335Z AUTO 00000KT 10SM CLR 12/08 A3020 RMK AO2
KCPT 180315Z AUTO 00000KT 10SM CLR 12/08 A3020 RMK AO2
KCPT 180255Z AUTO 08006KT 10SM CLR 12/08 A3019 RMK AO2
KCPT 180235Z AUTO 09006KT 10SM CLR 12/08 A3019 RMK AO2
KCPT 180215Z AUTO 09007KT 10SM CLR 13/08 A3020 RMK AO2
KCPT 180155Z AUTO 09006KT 10SM CLR 13/08 A3020 RMK AO2
KCPT 180135Z AUTO 08008KT 10SM CLR 13/09 A3019 RMK AO2
KCPT 180115Z AUTO 07007KT 10SM CLR 14/09 A3019 RMK AO2
KCPT 180055Z AUTO 06008KT 10SM CLR 15/09 A3017 RMK AO2
KCPT 180035Z AUTO 06009KT 10SM CLR 15/09 A3016 RMK AO2
KCPT 180015Z AUTO 05010KT 10SM CLR 16/07 A3016 RMK AO2
KCPT 172355Z AUTO 04010KT 10SM CLR 17/07 A3015 RMK AO2
KCPT 172335Z AUTO 03011KT 10SM CLR 18/07 A3015 RMK AO2
KCPT 172315Z AUTO 04009KT 10SM CLR 19/07 A3013 RMK AO2
KCPT 172255Z AUTO 01008G13KT 10SM CLR 19/07 A3013 RMK AO2
KCPT 172235Z AUTO 03011KT 10SM CLR 20/07 A3012 RMK AO2
KCPT 172215Z AUTO 02009KT 10SM CLR 19/07 A3012 RMK AO2
KCPT 172155Z AUTO 36009KT 10SM CLR 19/08 A3011 RMK AO2
KCPT 172135Z AUTO 34010G16KT 10SM CLR 19/08 A3011 RMK AO2
KCPT 172115Z AUTO 29009KT 10SM CLR 19/08 A3011 RMK AO2
KCPT 172055Z AUTO 33010KT 10SM CLR 19/08 A3011 RMK AO2
KCPT 172035Z AUTO 26007KT 10SM CLR 17/07 A3011 RMK AO2
KCPT 172015Z AUTO 35006KT 10SM CLR 17/07 A3011 RMK AO2
KCPT 171955Z AUTO 32009G15KT 10SM CLR 17/07 A3012 RMK AO2
KCPT 171935Z AUTO 27009G15KT 10SM CLR 17/06 A3012 RMK AO2
KCPT 171915Z AUTO VRB04KT 10SM CLR 15/07 A3011 RMK AO2
KCPT 171855Z AUTO 21007KT 180V240 10SM CLR 15/07 A3012 RMK AO2
KCPT 171835Z AUTO 18007G12KT 150V210 10SM CLR 13/07 A3013 RMK AO2
KCPT 171815Z AUTO VRB05KT 10SM CLR 13/08 A3014 RMK AO2
KCPT 171755Z AUTO 18007KT 10SM FEW060 FEW100 12/08 A3015 RMK AO2
KCPT 171735Z AUTO 26003KT 10SM BKN055 BKN100 10/07 A3016 RMK AO2
KCPT 171715Z AUTO 23003KT 10SM BKN050 OVC055 09/07 A3017 RMK AO2
KCPT 171655Z AUTO 00000KT 10SM BKN043 OVC049 08/06 A3018 RMK AO2
KCPT 171635Z AUTO 19004KT 10SM OVC039 08/06 A3016 RMK AO2
KCPT 171615Z AUTO 00000KT 10SM OVC037 07/06 A3016 RMK AO2
KCPT 171555Z AUTO 00000KT 10SM OVC036 07/05 A3016 RMK AO2 P0001
KCPT 171535Z AUTO 00000KT 10SM SCT031 OVC038 07/05 A3015 RMK AO2
KCPT 171515Z AUTO 34006KT 7SM -RA OVC030 07/06 A3016 RMK AO2
KCPT 171455Z AUTO 00000KT 3SM RA OVC029 06/05 A3016 RMK AO2 P0001
KCPT 171435Z AUTO 22005KT 7SM -RA BKN027 BKN049 OVC080 06/05 A3014 RMK AO2
KCPT 171415Z AUTO 16010KT 4SM -RA BKN025 BKN049 OVC080 06/04 A3008 RMK AO2
KCPT 171355Z AUTO 16007KT 10SM OVC026 06/04 A3010 RMK AO2
KCPT 171335Z AUTO 19004KT 10SM OVC026 06/03 A3011 RMK AO2
KCPT 171315Z AUTO 24003KT 8SM OVC026 06/04 A3012 RMK AO2
KCPT 171255Z AUTO 19004KT 9SM OVC028 06/04 A3011 RMK AO2
KCPT 171235Z AUTO 00000KT 10SM OVC025 06/03 A3011 RMK AO2
KCPT 171215Z AUTO 00000KT 10SM OVC024 06/03 A3012 RMK AO2
KCPT 171155Z AUTO 00000KT 10SM OVC022 06/03 A3012 RMK AO2
KCPT 171135Z AUTO 32006KT 10SM OVC021 06/03 A3013 RMK AO2
KCPT 171055Z AUTO 33009KT 10SM OVC024 06/03 A3013 RMK AO2
KCPT 171035Z AUTO 33012KT 4SM -RA OVC023 06/03 A3012 RMK AO2
KCPT 171015Z AUTO 32010G15KT 9SM OVC022 06/03 A3013 RMK AO2
KCPT 170955Z AUTO 32011KT 10SM OVC020 06/03 A3013 RMK AO2
KCPT 170935Z AUTO 32011KT 10SM -DZ OVC018 06/04 A3012 RMK AO2
KCPT 170915Z AUTO 31010KT 9SM RA OVC016 07/03 A3013 RMK AO2
KCPT 170855Z AUTO 30009KT 10SM OVC015 07/02 A3012 RMK AO2
KCPT 170835Z AUTO 30004KT 10SM OVC015 07/02 A3009 RMK AO2
KCPT 170815Z AUTO 33004KT 10SM OVC016 07/02 A3009 RMK AO2
KCPT 170755Z AUTO 32004KT 10SM OVC017 07/02 A3010 RMK AO2
KCPT 170715Z AUTO 34003KT 10SM OVC019 07/03 A3010 RMK AO2
KCPT 170655Z AUTO 33007KT 10SM OVC019 07/03 A3011 RMK AO2
KCPT 170635Z AUTO 30004KT 10SM OVC018 07/03 A3011 RMK AO2
KCPT 170615Z AUTO 30003KT 10SM OVC018 07/03 A3012 RMK AO2
KCPT 170555Z AUTO 00000KT 10SM OVC019 07/03 A3013 RMK AO2
KCPT 170535Z AUTO 01005KT 10SM OVC020 07/03 A3014 RMK AO2
KCPT 170515Z AUTO 35005KT 10SM -DZ BKN020 OVC045 07/02 A3016 RMK AO2
KCPT 170455Z AUTO 02004KT 10SM BKN047 OVC065 07/03 A3016 RMK AO2
KCPT 170435Z AUTO 35005KT 10SM FEW023 BKN050 OVC065 07/03 A3017 RMK AO2
KCPT 170415Z AUTO 03006KT 10SM -RA FEW040 SCT048 BKN075 08/01 A3016 RMK AO2
KCPT 170355Z AUTO 02006KT 10SM FEW045 SCT065 BKN120 08/00 A3018 RMK AO2
KCPT 170335Z AUTO 03007KT 10SM FEW027 SCT065 BKN080 08/00 A3018 RMK AO2
KCPT 170315Z AUTO 03006KT 10SM -DZ FEW042 SCT060 BKN080 08/00 A3020 RMK AO2
KCPT 170255Z AUTO 03009KT 10SM -RA FEW005 SCT050 BKN075 08/00 A3019 RMK AO2
KCPT 170235Z AUTO 03011KT 10SM SCT055 SCT075 BKN090 09/M00 A3020 RMK AO2
KCPT 170215Z AUTO 04010KT 10SM SCT120 09/M00 A3020 RMK AO2
KCPT 170155Z AUTO 03009KT 10SM FEW120 09/M00 A3021 RMK AO2
KCPT 170135Z AUTO 03008KT 10SM FEW120 09/M00 A3021 RMK AO2
KCPT 170115Z AUTO 03011KT 10SM FEW120 10/M00 A3020 RMK AO2
KCPT 170055Z AUTO 03011KT 10SM FEW120 10/M00 A3021 RMK AO2
KCPT 170035Z AUTO 03012KT 10SM FEW120 11/M00 A3021 RMK AO2
KCPT 170015Z AUTO 03010KT 10SM CLR 11/00 A3021 RMK AO2
KCPT 162355Z AUTO 03010G17KT 10SM CLR 11/M00 A3021 RMK AO2
KCPT 162335Z AUTO 04011KT 10SM CLR 12/M00 A3021 RMK AO2
KCPT 162315Z AUTO 03013KT 10SM CLR 12/M00 A3021 RMK AO2
KCPT 162255Z AUTO 02009G14KT 10SM CLR 13/M00 A3022 RMK AO2
KCPT 162235Z AUTO 01012KT 10SM CLR 13/M00 A3023 RMK AO2
KCPT 162215Z AUTO 02014G20KT 10SM CLR 13/M00 A3022 RMK AO2
KCPT 162155Z AUTO 03015G21KT 10SM CLR 13/M00 A3023 RMK AO2
KCPT 162135Z AUTO 02014KT 10SM CLR 14/M00 A3022 RMK AO2
KCPT 162115Z AUTO 36015KT 10SM CLR 15/M00 A3022 RMK AO2
KCPT 162055Z AUTO 02015KT 10SM CLR 15/M00 A3022 RMK AO2
KCPT 162035Z AUTO 02012G19KT 10SM CLR 15/00 A3022 RMK AO2
KCPT 162015Z AUTO 01017KT 10SM CLR 15/M00 A3022 RMK AO2
KCPT 161955Z AUTO 01014G21KT 10SM CLR 15/M00 A3023 RMK AO2
KCPT 161935Z AUTO 36014G25KT 10SM CLR 15/M00 A3024 RMK AO2
KCPT 161915Z AUTO 02016KT 10SM CLR 15/M00 A3025 RMK AO2